sensor_id;sensor_type;location;lat;lon;timestamp;pressure;altitude;pressure_sealevel;temperature;humidity
21240;BME280;10778;48.962;9.018;2024-03-08T00:02:24;99037.22;;;1.89;100.00
21240;BME280;10778;48.962;9.018;2024-03-08T00:04:50;99034.75;;;1.85;100.00
21240;BME280;10778;48.962;9.018;2024-03-08T00:07:17;99041.03;;;1.81;100.00
21240;BME280;10778;48.962;9.018;2024-03-08T00:09:42;99039.19;;;1.83;100.00
21240;BME280;10778;48.962;9.018;2024-03-08T00:12:08;99035.38;;;1.91;100.00
21240;BME280;10778;48.962;9.018;2024-03-08T00:14:35;99031.41;;;1.83;100.00
21240;BME280;10778;48.962;9.018;2024-03-08T00:17:03;99030.00;;;1.78;100.00
21240;BME280;10778;48.962;9.018;2024-03-08T00:19:29;99021.56;;;1.74;100.00
21240;BME280;10778;48.962;9.018;2024-03-08T00:21:55;99021.28;;;1.79;100.00
21240;BME280;10778;48.962;9.018;2024-03-08T00:24:21;99023.97;;;1.77;100.00
21240;BME280;10778;48.962;9.018;2024-03-08T00:26:50;99016.19;;;1.77;100.00
21240;BME280;10778;48.962;9.018;2024-03-08T00:29:16;99009.00;;;1.66;100.00
21240;BME280;10778;48.962;9.018;2024-03-08T00:31:43;99013.44;;;1.64;100.00
21240;BME280;10778;48.962;9.018;2024-03-08T00:34:09;99007.59;;;1.61;100.00
21240;BME280;10778;48.962;9.018;2024-03-08T00:36:37;99013.13;;;1.54;100.00
21240;BME280;10778;48.962;9.018;2024-03-08T00:39:03;99010.84;;;1.48;100.00
21240;BME280;10778;48.962;9.018;2024-03-08T00:41:32;99001.72;;;1.41;100.00
21240;BME280;10778;48.962;9.018;2024-03-08T00:43:58;99000.69;;;1.44;100.00
21240;BME280;10778;48.962;9.018;2024-03-08T00:46:24;99005.66;;;1.48;100.00
21240;BME280;10778;48.962;9.018;2024-03-08T00:48:50;99004.31;;;1.41;100.00
21240;BME280;10778;48.962;9.018;2024-03-08T00:51:16;99001.97;;;1.36;100.00
21240;BME280;10778;48.962;9.018;2024-03-08T00:53:42;98996.19;;;1.31;100.00
21240;BME280;10778;48.962;9.018;2024-03-08T00:56:08;98997.88;;;1.32;100.00
21240;BME280;10778;48.962;9.018;2024-03-08T00:58:37;98999.19;;;1.39;100.00
21240;BME280;10778;48.962;9.018;2024-03-08T01:01:03;98990.09;;;1.32;100.00
21240;BME280;10778;48.962;9.018;2024-03-08T01:03:31;98992.16;;;1.41;100.00
21240;BME280;10778;48.962;9.018;2024-03-08T01:06:00;98992.84;;;1.29;100.00
21240;BME280;10778;48.962;9.018;2024-03-08T01:08:30;98991.41;;;1.23;100.00
21240;BME280;10778;48.962;9.018;2024-03-08T01:10:56;98996.09;;;1.17;100.00
21240;BME280;10778;48.962;9.018;2024-03-08T01:13:22;98984.63;;;1.21;100.00
21240;BME280;10778;48.962;9.018;2024-03-08T01:15:48;98986.72;;;1.14;100.00
21240;BME280;10778;48.962;9.018;2024-03-08T01:18:14;98987.03;;;1.08;100.00
21240;BME280;10778;48.962;9.018;2024-03-08T01:20:40;98984.44;;;1.08;100.00
21240;BME280;10778;48.962;9.018;2024-03-08T01:23:07;98983.75;;;1.04;100.00
21240;BME280;10778;48.962;9.018;2024-03-08T01:25:33;98981.94;;;1.06;100.00
21240;BME280;10778;48.962;9.018;2024-03-08T01:27:59;98976.56;;;1.09;100.00
21240;BME280;10778;48.962;9.018;2024-03-08T01:30:25;98977.06;;;1.00;100.00
21240;BME280;10778;48.962;9.018;2024-03-08T01:32:51;98965.03;;;0.99;100.00
21240;BME280;10778;48.962;9.018;2024-03-08T01:35:17;98972.19;;;0.94;100.00
21240;BME280;10778;48.962;9.018;2024-03-08T01:37:44;98968.94;;;0.90;100.00
21240;BME280;10778;48.962;9.018;2024-03-08T01:40:10;98960.50;;;0.87;100.00
21240;BME280;10778;48.962;9.018;2024-03-08T01:42:36;98964.00;;;0.85;100.00
21240;BME280;10778;48.962;9.018;2024-03-08T01:45:06;98953.13;;;0.79;100.00
21240;BME280;10778;48.962;9.018;2024-03-08T01:47:32;98943.91;;;0.73;100.00
21240;BME280;10778;48.962;9.018;2024-03-08T01:49:59;98953.75;;;0.66;100.00
21240;BME280;10778;48.962;9.018;2024-03-08T01:52:28;98946.53;;;0.55;100.00
21240;BME280;10778;48.962;9.018;2024-03-08T01:55:02;98952.63;;;0.54;100.00
21240;BME280;10778;48.962;9.018;2024-03-08T01:57:30;98944.50;;;0.45;100.00
21240;BME280;10778;48.962;9.018;2024-03-08T01:59:57;98937.13;;;0.37;100.00
21240;BME280;10778;48.962;9.018;2024-03-08T02:02:23;98940.03;;;0.31;100.00
21240;BME280;10778;48.962;9.018;2024-03-08T02:04:49;98935.97;;;0.25;100.00
21240;BME280;10778;48.962;9.018;2024-03-08T02:07:18;98923.50;;;0.16;100.00
21240;BME280;10778;48.962;9.018;2024-03-08T02:09:44;98918.69;;;0.08;100.00
21240;BME280;10778;48.962;9.018;2024-03-08T02:12:10;98917.50;;;-0.03;100.00
21240;BME280;10778;48.962;9.018;2024-03-08T02:14:38;98921.59;;;-0.16;100.00
21240;BME280;10778;48.962;9.018;2024-03-08T02:17:05;98911.63;;;-0.24;100.00
21240;BME280;10778;48.962;9.018;2024-03-08T02:19:31;98910.91;;;-0.27;100.00
21240;BME280;10778;48.962;9.018;2024-03-08T02:21:58;98909.59;;;-0.36;100.00
21240;BME280;10778;48.962;9.018;2024-03-08T02:24:25;98907.94;;;-0.37;100.00
21240;BME280;10778;48.962;9.018;2024-03-08T02:26:51;98903.78;;;-0.40;100.00
21240;BME280;10778;48.962;9.018;2024-03-08T02:29:17;98903.69;;;-0.38;100.00
21240;BME280;10778;48.962;9.018;2024-03-08T02:31:43;98898.72;;;-0.43;100.00
21240;BME280;10778;48.962;9.018;2024-03-08T02:34:09;98893.66;;;-0.45;100.00
21240;BME280;10778;48.962;9.018;2024-03-08T02:36:35;98890.28;;;-0.47;100.00
21240;BME280;10778;48.962;9.018;2024-03-08T02:39:02;98893.94;;;-0.51;100.00
21240;BME280;10778;48.962;9.018;2024-03-08T02:41:28;98890.09;;;-0.42;100.00
21240;BME280;10778;48.962;9.018;2024-03-08T02:43:54;98890.00;;;-0.40;100.00
21240;BME280;10778;48.962;9.018;2024-03-08T02:46:21;98888.31;;;-0.41;100.00
21240;BME280;10778;48.962;9.018;2024-03-08T02:48:47;98887.41;;;-0.40;100.00
21240;BME280;10778;48.962;9.018;2024-03-08T02:51:13;98881.47;;;-0.43;100.00
21240;BME280;10778;48.962;9.018;2024-03-08T02:53:39;98881.41;;;-0.41;100.00
21240;BME280;10778;48.962;9.018;2024-03-08T02:56:05;98879.81;;;-0.44;100.00
21240;BME280;10778;48.962;9.018;2024-03-08T02:58:34;98883.38;;;-0.46;100.00
21240;BME280;10778;48.962;9.018;2024-03-08T03:01:00;98881.09;;;-0.52;100.00
21240;BME280;10778;48.962;9.018;2024-03-08T03:03:26;98880.22;;;-0.53;100.00
21240;BME280;10778;48.962;9.018;2024-03-08T03:05:52;98877.81;;;-0.56;100.00
21240;BME280;10778;48.962;9.018;2024-03-08T03:08:21;98878.81;;;-0.59;100.00
21240;BME280;10778;48.962;9.018;2024-03-08T03:10:47;98877.34;;;-0.64;100.00
21240;BME280;10778;48.962;9.018;2024-03-08T03:13:13;98873.16;;;-0.67;100.00
21240;BME280;10778;48.962;9.018;2024-03-08T03:15:42;98867.28;;;-0.70;100.00
21240;BME280;10778;48.962;9.018;2024-03-08T03:18:08;98869.31;;;-0.77;100.00
21240;BME280;10778;48.962;9.018;2024-03-08T03:20:34;98867.03;;;-0.83;100.00
21240;BME280;10778;48.962;9.018;2024-03-08T03:23:06;98858.66;;;-0.89;100.00
21240;BME280;10778;48.962;9.018;2024-03-08T03:25:35;98859.63;;;-0.91;100.00
21240;BME280;10778;48.962;9.018;2024-03-08T03:28:01;98857.41;;;-0.99;100.00
21240;BME280;10778;48.962;9.018;2024-03-08T03:30:28;98858.41;;;-1.02;100.00
21240;BME280;10778;48.962;9.018;2024-03-08T03:32:59;98854.97;;;-1.02;100.00
21240;BME280;10778;48.962;9.018;2024-03-08T03:35:29;98853.59;;;-1.09;100.00
21240;BME280;10778;48.962;9.018;2024-03-08T03:37:55;98848.63;;;-1.14;100.00
21240;BME280;10778;48.962;9.018;2024-03-08T03:40:32;98841.03;;;-1.17;100.00
21240;BME280;10778;48.962;9.018;2024-03-08T03:42:58;98840.75;;;-1.11;100.00
21240;BME280;10778;48.962;9.018;2024-03-08T03:45:24;98842.75;;;-1.18;100.00
21240;BME280;10778;48.962;9.018;2024-03-08T03:47:50;98837.03;;;-1.24;100.00
21240;BME280;10778;48.962;9.018;2024-03-08T03:50:21;98844.91;;;-1.27;100.00
21240;BME280;10778;48.962;9.018;2024-03-08T03:52:47;98848.03;;;-1.40;100.00
21240;BME280;10778;48.962;9.018;2024-03-08T03:55:14;98850.78;;;-1.43;100.00
21240;BME280;10778;48.962;9.018;2024-03-08T03:57:41;98855.88;;;-1.41;100.00
21240;BME280;10778;48.962;9.018;2024-03-08T04:00:08;98840.38;;;-1.41;100.00
21240;BME280;10778;48.962;9.018;2024-03-08T04:02:40;98839.53;;;-1.42;100.00
21240;BME280;10778;48.962;9.018;2024-03-08T04:05:07;98836.97;;;-1.42;100.00
21240;BME280;10778;48.962;9.018;2024-03-08T04:07:34;98836.91;;;-1.40;100.00
21240;BME280;10778;48.962;9.018;2024-03-08T04:10:04;98836.91;;;-1.40;100.00
21240;BME280;10778;48.962;9.018;2024-03-08T04:12:33;98835.38;;;-1.45;100.00
21240;BME280;10778;48.962;9.018;2024-03-08T04:14:59;98835.63;;;-1.51;100.00
21240;BME280;10778;48.962;9.018;2024-03-08T04:17:25;98837.00;;;-1.63;100.00
21240;BME280;10778;48.962;9.018;2024-03-08T04:19:51;98825.94;;;-1.65;100.00
21240;BME280;10778;48.962;9.018;2024-03-08T04:22:17;98824.97;;;-1.62;100.00
21240;BME280;10778;48.962;9.018;2024-03-08T04:24:46;98832.69;;;-1.62;100.00
21240;BME280;10778;48.962;9.018;2024-03-08T04:27:13;98827.59;;;-1.64;100.00
21240;BME280;10778;48.962;9.018;2024-03-08T04:29:40;98824.31;;;-1.67;100.00
21240;BME280;10778;48.962;9.018;2024-03-08T04:32:07;98822.63;;;-1.68;100.00
21240;BME280;10778;48.962;9.018;2024-03-08T04:34:35;98826.13;;;-1.69;100.00
21240;BME280;10778;48.962;9.018;2024-03-08T04:37:01;98825.41;;;-1.73;100.00
21240;BME280;10778;48.962;9.018;2024-03-08T04:39:28;98818.47;;;-1.71;100.00
21240;BME280;10778;48.962;9.018;2024-03-08T04:41:56;98816.72;;;-1.70;100.00
21240;BME280;10778;48.962;9.018;2024-03-08T04:44:24;98818.31;;;-1.68;100.00
21240;BME280;10778;48.962;9.018;2024-03-08T04:46:51;98811.69;;;-1.74;100.00
21240;BME280;10778;48.962;9.018;2024-03-08T04:49:17;98809.94;;;-1.73;100.00
21240;BME280;10778;48.962;9.018;2024-03-08T04:51:43;98810.78;;;-1.73;100.00
21240;BME280;10778;48.962;9.018;2024-03-08T04:54:10;98811.56;;;-1.70;100.00
21240;BME280;10778;48.962;9.018;2024-03-08T04:56:36;98808.41;;;-1.77;100.00
21240;BME280;10778;48.962;9.018;2024-03-08T04:59:02;98811.06;;;-1.79;100.00
21240;BME280;10778;48.962;9.018;2024-03-08T05:01:28;98810.22;;;-1.79;100.00
21240;BME280;10778;48.962;9.018;2024-03-08T05:03:54;98808.59;;;-1.82;100.00
21240;BME280;10778;48.962;9.018;2024-03-08T05:06:21;98808.09;;;-1.90;100.00
21240;BME280;10778;48.962;9.018;2024-03-08T05:08:47;98809.16;;;-1.94;100.00
21240;BME280;10778;48.962;9.018;2024-03-08T05:11:13;98808.25;;;-1.93;100.00
21240;BME280;10778;48.962;9.018;2024-03-08T05:13:40;98801.47;;;-1.96;100.00
21240;BME280;10778;48.962;9.018;2024-03-08T05:16:07;98806.63;;;-1.96;100.00
21240;BME280;10778;48.962;9.018;2024-03-08T05:18:33;98795.41;;;-1.95;100.00
21240;BME280;10778;48.962;9.018;2024-03-08T05:21:00;98798.69;;;-1.91;100.00
21240;BME280;10778;48.962;9.018;2024-03-08T05:23:26;98798.56;;;-1.88;100.00
21240;BME280;10778;48.962;9.018;2024-03-08T05:25:51;98802.66;;;-1.84;100.00
21240;BME280;10778;48.962;9.018;2024-03-08T05:28:17;98801.13;;;-1.88;100.00
21240;BME280;10778;48.962;9.018;2024-03-08T05:30:43;98797.06;;;-1.94;100.00
21240;BME280;10778;48.962;9.018;2024-03-08T05:33:09;98791.22;;;-1.97;100.00
21240;BME280;10778;48.962;9.018;2024-03-08T05:35:40;98787.88;;;-2.00;100.00
21240;BME280;10778;48.962;9.018;2024-03-08T05:38:06;98784.53;;;-2.02;100.00
21240;BME280;10778;48.962;9.018;2024-03-08T05:40:32;98786.34;;;-2.04;100.00
21240;BME280;10778;48.962;9.018;2024-03-08T05:42:59;98787.44;;;-2.09;100.00
21240;BME280;10778;48.962;9.018;2024-03-08T05:45:27;98792.38;;;-2.05;100.00
21240;BME280;10778;48.962;9.018;2024-03-08T05:47:53;98791.47;;;-2.04;100.00
21240;BME280;10778;48.962;9.018;2024-03-08T05:50:19;98793.78;;;-1.97;100.00
21240;BME280;10778;48.962;9.018;2024-03-08T05:52:46;98792.91;;;-1.96;100.00
21240;BME280;10778;48.962;9.018;2024-03-08T05:55:13;98792.06;;;-1.97;100.00
21240;BME280;10778;48.962;9.018;2024-03-08T05:57:41;98794.31;;;-1.89;100.00
21240;BME280;10778;48.962;9.018;2024-03-08T06:00:09;98788.06;;;-1.83;100.00
21240;BME280;10778;48.962;9.018;2024-03-08T06:02:39;98792.03;;;-1.76;100.00
21240;BME280;10778;48.962;9.018;2024-03-08T06:05:10;98788.34;;;-1.70;100.00
21240;BME280;10778;48.962;9.018;2024-03-08T06:07:39;98774.47;;;-1.68;100.00
21240;BME280;10778;48.962;9.018;2024-03-08T06:10:10;98786.31;;;-1.64;100.00
21240;BME280;10778;48.962;9.018;2024-03-08T06:12:36;98781.13;;;-1.62;100.00
21240;BME280;10778;48.962;9.018;2024-03-08T06:15:09;98783.13;;;-1.69;100.00
21240;BME280;10778;48.962;9.018;2024-03-08T06:17:36;98778.59;;;-1.64;100.00
21240;BME280;10778;48.962;9.018;2024-03-08T06:20:02;98782.63;;;-1.58;100.00
21240;BME280;10778;48.962;9.018;2024-03-08T06:22:29;98782.50;;;-1.55;100.00
21240;BME280;10778;48.962;9.018;2024-03-08T06:24:56;98779.38;;;-1.42;100.00
21240;BME280;10778;48.962;9.018;2024-03-08T06:27:22;98780.13;;;-1.40;100.00
21240;BME280;10778;48.962;9.018;2024-03-08T06:29:48;98779.44;;;-1.25;100.00
21240;BME280;10778;48.962;9.018;2024-03-08T06:32:15;98788.63;;;-1.19;100.00
21240;BME280;10778;48.962;9.018;2024-03-08T06:34:41;98786.66;;;-1.14;100.00
21240;BME280;10778;48.962;9.018;2024-03-08T06:37:07;98789.72;;;-1.06;100.00
21240;BME280;10778;48.962;9.018;2024-03-08T06:39:33;98784.50;;;-1.04;100.00
21240;BME280;10778;48.962;9.018;2024-03-08T06:42:01;98786.41;;;-0.90;100.00
21240;BME280;10778;48.962;9.018;2024-03-08T06:44:27;98781.56;;;-0.79;100.00
21240;BME280;10778;48.962;9.018;2024-03-08T06:46:53;98786.97;;;-0.66;100.00
21240;BME280;10778;48.962;9.018;2024-03-08T06:49:19;98779.69;;;-0.58;100.00
21240;BME280;10778;48.962;9.018;2024-03-08T06:51:45;98787.88;;;-0.67;100.00
21240;BME280;10778;48.962;9.018;2024-03-08T06:54:11;98781.53;;;-0.60;100.00
21240;BME280;10778;48.962;9.018;2024-03-08T06:56:37;98788.06;;;-0.35;100.00
21240;BME280;10778;48.962;9.018;2024-03-08T06:59:03;98779.88;;;0.58;100.00
21240;BME280;10778;48.962;9.018;2024-03-08T07:01:29;98775.19;;;0.65;100.00
21240;BME280;10778;48.962;9.018;2024-03-08T07:03:58;98768.94;;;1.77;99.23
21240;BME280;10778;48.962;9.018;2024-03-08T07:06:24;98757.88;;;2.75;93.52
21240;BME280;10778;48.962;9.018;2024-03-08T07:08:50;98764.97;;;3.00;87.34
21240;BME280;10778;48.962;9.018;2024-03-08T07:11:16;98761.69;;;3.24;86.42
21240;BME280;10778;48.962;9.018;2024-03-08T07:13:45;98760.22;;;3.73;85.63
21240;BME280;10778;48.962;9.018;2024-03-08T07:16:11;98761.47;;;2.87;86.10
21240;BME280;10778;48.962;9.018;2024-03-08T07:18:37;98755.34;;;3.81;85.40
21240;BME280;10778;48.962;9.018;2024-03-08T07:21:09;98739.84;;;4.56;80.10
21240;BME280;10778;48.962;9.018;2024-03-08T07:23:36;98749.28;;;4.20;81.79
21240;BME280;10778;48.962;9.018;2024-03-08T07:26:21;98746.91;;;3.78;83.52
21240;BME280;10778;48.962;9.018;2024-03-08T07:28:47;98748.56;;;2.85;87.74
21240;BME280;10778;48.962;9.018;2024-03-08T07:31:13;98757.91;;;2.60;90.47
21240;BME280;10778;48.962;9.018;2024-03-08T07:33:49;98757.47;;;2.53;90.88
21240;BME280;10778;48.962;9.018;2024-03-08T07:36:16;98758.59;;;2.35;93.34
21240;BME280;10778;48.962;9.018;2024-03-08T07:38:42;98756.00;;;2.20;95.12
21240;BME280;10778;48.962;9.018;2024-03-08T07:41:08;98744.69;;;2.07;96.47
21240;BME280;10778;48.962;9.018;2024-03-08T07:43:34;98751.09;;;2.01;96.20
21240;BME280;10778;48.962;9.018;2024-03-08T07:46:00;98756.19;;;2.03;97.88
21240;BME280;10778;48.962;9.018;2024-03-08T07:48:26;98750.34;;;1.99;97.25
21240;BME280;10778;48.962;9.018;2024-03-08T07:50:52;98756.53;;;1.96;97.36
21240;BME280;10778;48.962;9.018;2024-03-08T07:53:18;98748.13;;;1.93;97.92
21240;BME280;10778;48.962;9.018;2024-03-08T07:55:44;98741.28;;;1.92;98.90
21240;BME280;10778;48.962;9.018;2024-03-08T07:58:10;98737.00;;;1.91;97.25
21240;BME280;10778;48.962;9.018;2024-03-08T08:00:36;98745.34;;;1.81;98.87
21240;BME280;10778;48.962;9.018;2024-03-08T08:03:03;98736.63;;;1.97;98.41
21240;BME280;10778;48.962;9.018;2024-03-08T08:05:30;98733.13;;;1.98;99.03
21240;BME280;10778;48.962;9.018;2024-03-08T08:08:05;98732.94;;;2.01;98.55
21240;BME280;10778;48.962;9.018;2024-03-08T08:10:35;98727.94;;;2.12;98.02
21240;BME280;10778;48.962;9.018;2024-03-08T08:13:01;98735.06;;;2.09;96.97
21240;BME280;10778;48.962;9.018;2024-03-08T08:15:27;98725.34;;;2.12;96.83
21240;BME280;10778;48.962;9.018;2024-03-08T08:17:54;98728.59;;;2.16;97.49
21240;BME280;10778;48.962;9.018;2024-03-08T08:20:20;98731.25;;;2.29;96.54
21240;BME280;10778;48.962;9.018;2024-03-08T08:22:47;98733.38;;;2.79;100.00
21240;BME280;10778;48.962;9.018;2024-03-08T08:25:14;98722.97;;;3.06;100.00
21240;BME280;10778;48.962;9.018;2024-03-08T08:27:46;98712.84;;;3.42;100.00
21240;BME280;10778;48.962;9.018;2024-03-08T08:30:12;98721.31;;;3.05;94.50
21240;BME280;10778;48.962;9.018;2024-03-08T08:32:39;98713.00;;;3.13;93.52
21240;BME280;10778;48.962;9.018;2024-03-08T08:35:08;98712.06;;;3.01;91.73
21240;BME280;10778;48.962;9.018;2024-03-08T08:37:35;98706.28;;;2.96;92.29
21240;BME280;10778;48.962;9.018;2024-03-08T08:40:04;98710.75;;;2.94;91.61
21240;BME280;10778;48.962;9.018;2024-03-08T08:42:36;98700.72;;;3.02;93.31
21240;BME280;10778;48.962;9.018;2024-03-08T08:45:05;98700.69;;;3.42;91.63
21240;BME280;10778;48.962;9.018;2024-03-08T08:47:37;98698.16;;;3.28;90.22
21240;BME280;10778;48.962;9.018;2024-03-08T08:50:04;98698.28;;;3.39;90.28
21240;BME280;10778;48.962;9.018;2024-03-08T08:52:31;98693.84;;;3.80;92.70
21240;BME280;10778;48.962;9.018;2024-03-08T08:54:58;98696.34;;;3.56;88.62
21240;BME280;10778;48.962;9.018;2024-03-08T08:57:24;98693.53;;;3.06;88.58
21240;BME280;10778;48.962;9.018;2024-03-08T08:59:50;98690.72;;;2.96;88.77
21240;BME280;10778;48.962;9.018;2024-03-08T09:02:15;98699.81;;;3.16;89.96
21240;BME280;10778;48.962;9.018;2024-03-08T09:04:43;98703.47;;;3.26;89.82
21240;BME280;10778;48.962;9.018;2024-03-08T09:07:11;98699.44;;;2.95;88.00
21240;BME280;10778;48.962;9.018;2024-03-08T09:09:39;98700.38;;;2.94;89.40
21240;BME280;10778;48.962;9.018;2024-03-08T09:12:05;98701.78;;;2.85;89.24
21240;BME280;10778;48.962;9.018;2024-03-08T09:14:31;98697.34;;;2.87;88.96
21240;BME280;10778;48.962;9.018;2024-03-08T09:16:57;98693.41;;;2.94;88.66
21240;BME280;10778;48.962;9.018;2024-03-08T09:19:23;98685.84;;;3.04;88.75
21240;BME280;10778;48.962;9.018;2024-03-08T09:21:51;98684.22;;;3.29;89.27
21240;BME280;10778;48.962;9.018;2024-03-08T09:24:17;98678.22;;;3.54;88.60
21240;BME280;10778;48.962;9.018;2024-03-08T09:26:43;98671.34;;;3.40;87.02
21240;BME280;10778;48.962;9.018;2024-03-08T09:29:09;98672.50;;;3.36;87.12
21240;BME280;10778;48.962;9.018;2024-03-08T09:31:36;98675.69;;;3.27;88.88
21240;BME280;10778;48.962;9.018;2024-03-08T09:34:03;98679.88;;;3.30;88.73
21240;BME280;10778;48.962;9.018;2024-03-08T09:36:29;98669.16;;;3.47;88.92
21240;BME280;10778;48.962;9.018;2024-03-08T09:38:58;98666.56;;;3.86;87.97
21240;BME280;10778;48.962;9.018;2024-03-08T09:41:24;98665.00;;;3.45;87.38
21240;BME280;10778;48.962;9.018;2024-03-08T09:43:50;98667.59;;;3.32;87.29
21240;BME280;10778;48.962;9.018;2024-03-08T09:46:18;98667.81;;;3.29;87.76
21240;BME280;10778;48.962;9.018;2024-03-08T09:48:45;98671.00;;;3.32;88.08
21240;BME280;10778;48.962;9.018;2024-03-08T09:51:12;98662.06;;;3.23;88.02
21240;BME280;10778;48.962;9.018;2024-03-08T09:53:41;98663.97;;;3.34;87.18
21240;BME280;10778;48.962;9.018;2024-03-08T09:56:08;98665.28;;;3.14;88.04
21240;BME280;10778;48.962;9.018;2024-03-08T09:58:34;98664.78;;;3.35;88.00
21240;BME280;10778;48.962;9.018;2024-03-08T10:01:00;98658.34;;;3.40;87.55
21240;BME280;10778;48.962;9.018;2024-03-08T10:03:30;98657.19;;;3.45;87.47
21240;BME280;10778;48.962;9.018;2024-03-08T10:05:58;98660.84;;;3.55;86.11
21240;BME280;10778;48.962;9.018;2024-03-08T10:08:27;98651.47;;;3.65;85.62
21240;BME280;10778;48.962;9.018;2024-03-08T10:10:56;98649.28;;;3.59;86.28
21240;BME280;10778;48.962;9.018;2024-03-08T10:13:25;98647.31;;;3.76;85.95
21240;BME280;10778;48.962;9.018;2024-03-08T10:15:53;98637.19;;;3.97;84.81
21240;BME280;10778;48.962;9.018;2024-03-08T10:18:21;98638.72;;;3.99;84.24
21240;BME280;10778;48.962;9.018;2024-03-08T10:21:05;98640.72;;;3.96;84.11
21240;BME280;10778;48.962;9.018;2024-03-08T10:23:33;98643.97;;;3.87;84.13
21240;BME280;10778;48.962;9.018;2024-03-08T10:26:18;98627.19;;;3.91;84.26
21240;BME280;10778;48.962;9.018;2024-03-08T10:28:50;98634.81;;;3.81;84.57
21240;BME280;10778;48.962;9.018;2024-03-08T10:31:18;98637.00;;;3.61;84.27
21240;BME280;10778;48.962;9.018;2024-03-08T10:33:48;98625.25;;;3.68;84.40
21240;BME280;10778;48.962;9.018;2024-03-08T10:36:15;98615.00;;;3.91;83.92
21240;BME280;10778;48.962;9.018;2024-03-08T10:38:42;98607.53;;;3.87;83.39
21240;BME280;10778;48.962;9.018;2024-03-08T10:41:13;98616.81;;;4.15;83.48
21240;BME280;10778;48.962;9.018;2024-03-08T10:47:01;98606.19;;;4.18;81.41
21240;BME280;10778;48.962;9.018;2024-03-08T10:49:42;98600.59;;;4.60;81.34
21240;BME280;10778;48.962;9.018;2024-03-08T10:52:15;98598.25;;;4.68;80.31
21240;BME280;10778;48.962;9.018;2024-03-08T10:54:43;98602.09;;;4.51;79.60
21240;BME280;10778;48.962;9.018;2024-03-08T10:57:12;98599.44;;;4.64;80.94
21240;BME280;10778;48.962;9.018;2024-03-08T10:59:38;98600.13;;;4.91;79.87
21240;BME280;10778;48.962;9.018;2024-03-08T11:02:05;98602.09;;;4.87;79.68
21240;BME280;10778;48.962;9.018;2024-03-08T11:04:31;98592.28;;;4.91;80.09
21240;BME280;10778;48.962;9.018;2024-03-08T11:07:02;98593.63;;;4.96;78.51
21240;BME280;10778;48.962;9.018;2024-03-08T11:09:37;98583.81;;;5.23;78.30
21240;BME280;10778;48.962;9.018;2024-03-08T11:12:21;98583.69;;;5.24;77.72
21240;BME280;10778;48.962;9.018;2024-03-08T11:14:51;98587.47;;;5.09;77.12
21240;BME280;10778;48.962;9.018;2024-03-08T11:17:26;98578.47;;;5.24;78.26
21240;BME280;10778;48.962;9.018;2024-03-08T11:19:55;98581.78;;;5.26;77.76
21240;BME280;10778;48.962;9.018;2024-03-08T11:22:25;98574.00;;;5.38;77.17
21240;BME280;10778;48.962;9.018;2024-03-08T11:24:58;98567.34;;;5.45;76.69
21240;BME280;10778;48.962;9.018;2024-03-08T11:27:30;98562.25;;;5.78;76.22
21240;BME280;10778;48.962;9.018;2024-03-08T11:30:10;98562.75;;;6.16;74.48
21240;BME280;10778;48.962;9.018;2024-03-08T11:32:50;98559.16;;;5.61;74.84
21240;BME280;10778;48.962;9.018;2024-03-08T11:35:21;98571.09;;;5.98;75.98
21240;BME280;10778;48.962;9.018;2024-03-08T11:37:48;98564.25;;;5.40;75.73
21240;BME280;10778;48.962;9.018;2024-03-08T11:40:15;98568.41;;;5.65;75.28
21240;BME280;10778;48.962;9.018;2024-03-08T11:42:45;98556.06;;;5.56;75.54
21240;BME280;10778;48.962;9.018;2024-03-08T11:45:18;98549.50;;;6.07;73.53
21240;BME280;10778;48.962;9.018;2024-03-08T11:47:47;98542.16;;;6.88;71.55
21240;BME280;10778;48.962;9.018;2024-03-08T11:50:14;98528.59;;;7.35;70.22
21240;BME280;10778;48.962;9.018;2024-03-08T11:52:41;98522.28;;;7.37;69.42
21240;BME280;10778;48.962;9.018;2024-03-08T11:55:08;98518.25;;;7.64;68.53
21240;BME280;10778;48.962;9.018;2024-03-08T11:57:34;98518.88;;;7.37;67.80
21240;BME280;10778;48.962;9.018;2024-03-08T12:00:02;98514.88;;;7.43;68.35
21240;BME280;10778;48.962;9.018;2024-03-08T12:02:34;98511.72;;;7.08;69.41
21240;BME280;10778;48.962;9.018;2024-03-08T12:05:04;98512.16;;;6.92;68.37
21240;BME280;10778;48.962;9.018;2024-03-08T12:07:31;98498.94;;;7.46;69.68
21240;BME280;10778;48.962;9.018;2024-03-08T12:12:51;98493.56;;;7.16;68.79
21240;BME280;10778;48.962;9.018;2024-03-08T12:15:20;98490.97;;;7.26;69.51
21240;BME280;10778;48.962;9.018;2024-03-08T12:17:50;98486.38;;;7.49;68.66
21240;BME280;10778;48.962;9.018;2024-03-08T12:20:21;98468.81;;;8.30;67.43
21240;BME280;10778;48.962;9.018;2024-03-08T12:22:49;98460.22;;;8.77;65.35
21240;BME280;10778;48.962;9.018;2024-03-08T12:25:15;98454.28;;;8.75;64.59
21240;BME280;10778;48.962;9.018;2024-03-08T12:27:42;98456.16;;;8.93;65.21
21240;BME280;10778;48.962;9.018;2024-03-08T12:30:21;98449.88;;;9.14;63.52
21240;BME280;10778;48.962;9.018;2024-03-08T12:32:55;98447.19;;;8.95;63.72
21240;BME280;10778;48.962;9.018;2024-03-08T12:35:27;98445.38;;;8.96;63.75
21240;BME280;10778;48.962;9.018;2024-03-08T12:37:58;98435.81;;;8.77;63.76
21240;BME280;10778;48.962;9.018;2024-03-08T12:40:27;98444.81;;;9.02;63.73
21240;BME280;10778;48.962;9.018;2024-03-08T12:42:58;98434.75;;;8.40;64.80
21240;BME280;10778;48.962;9.018;2024-03-08T12:45:24;98431.94;;;8.71;64.79
21240;BME280;10778;48.962;9.018;2024-03-08T12:47:51;98422.53;;;8.78;63.84
21240;BME280;10778;48.962;9.018;2024-03-08T12:50:19;98412.91;;;9.71;63.53
21240;BME280;10778;48.962;9.018;2024-03-08T12:52:45;98410.31;;;9.89;62.10
21240;BME280;10778;48.962;9.018;2024-03-08T12:55:11;98413.38;;;9.66;62.03
21240;BME280;10778;48.962;9.018;2024-03-08T12:57:38;98405.59;;;9.93;60.91
21240;BME280;10778;48.962;9.018;2024-03-08T13:00:04;98395.69;;;10.31;61.09
21240;BME280;10778;48.962;9.018;2024-03-08T13:02:31;98394.56;;;10.60;60.40
21240;BME280;10778;48.962;9.018;2024-03-08T13:04:58;98387.38;;;10.00;60.12
21240;BME280;10778;48.962;9.018;2024-03-08T13:07:24;98385.38;;;9.75;61.41
21240;BME280;10778;48.962;9.018;2024-03-08T13:09:52;98385.28;;;9.49;61.49